Archival Weather

Lewis University

Chicago/Romeoville, Illinois (KLOT)

Report from: Wednesday, August 23, 2023 4:45 PM CDT
Current time: Tuesday, July 16, 2024 10:01 AM CDT

Current weather – Weather history – Daily summaries
Weather forecast

Temperature35.0°C (95.0°F)
Heat index51.1°C (123.9°F)
Dew point29.0°C (84.2°F)
Winds 14 kts (7.2 m/s, 16.1 mph) West-Southwest (240°)
Wind gusts 21 kts (10.8 m/s, 24.2 mph)
Visibility10 mi. (16.1 km)
Clouds Few clouds 3,800 ft. (1,158 m)
Altimeter29.91 in.Hg (1013 mB)
Relative humidity71 %
Density altitude2,810 ft. (857 m)
Flight conditions Visual Meteorological Conditions
Raw dataKLOT 232145Z 24014G21KT 10SM FEW038 35/29 A2991
An error has occurred. This application may no longer respond until reloaded. Reload 🗙